Tutti
Liverpool Medical Airport YXLL Meteo
There is no TAF data available at YXLL. Showing TAF data for YSBK (3 mi E).
Previsione area Terminal BWU (nessun dato per YXLL)
| Here is the undecoded forecast: 2026/09/01 05:03 YSBK 010503Z 0106/0118 29014KT CAVOK FM011000 33006KT CAVOK RMK FM011100 MOD TURB BLW 5000FT T 25 20 16 14 Q 1019 1019 1019 1018 |
There is no METAR data available at YXLL. Showing METAR data for YSBK (3 mi E).
Storico METAR BWU recente (nessun dato per YXLL)
| Date | Time (AEST) | Flight Rules | Wind Dir. | Speed | Type | Height AGL (ft) | Visibility | Temp (°C) | Temp (°F) | Dew Point (°C) | Dew Point (°F) | Rel. Humid. | Pressure | Density Altitude | Remarks |
|---|---|---|---|---|---|---|---|---|---|---|---|---|---|---|---|
| 01-set | 15:00 | VFR | 320° | 10 kt | 10000 meters | 26° | 78° | 3° | 37° | 23% | 1018 mb | 1.207 ft | Wind gusting to 20 KT | ||
| 01-set | 14:00 | VFR | 310° | 7 kt | 10000 meters | 26° | 78° | 5° | 41° | 26% | 1019 mb | 1.178 ft | |||
| 01-set | 13:00 | VFR | 310° | 6 kt | 10000 meters | 25° | 77° | 5° | 41° | 28% | 1020 mb | 1.028 ft | |||
| 01-set | 12:00 | VFR | 10° | 5 kt | 10000 meters | 24° | 75° | 8° | 46° | 36% | 1022 mb | 849 ft | |||
| 01-set | 11:00 | VFR | 160° | 3 kt | 10000 meters | 20° | 68° | 11° | 51° | 56% | 1024 mb | 310 ft | |||
| 01-set | 10:00 | VFR | 290° | 4 kt | 10000 meters | 18° | 64° | 10° | 50° | 59% | 1025 mb | 41 ft | |||
| 01-set | 09:00 | VFR | 330° | 2 kt | 10000 meters | 15° | 59° | 10° | 50° | 72% | 1026 mb | -349 ft | |||
| 01-set | 08:00 | VFR | Calm | 10000 meters | 12° | 53° | 11° | 51° | 94% | 1027 mb | -738 ft | ||||
| 01-set | 07:00 | VFR | Calm | 10000 meters | 8° | 46° | 8° | 46° | 100% | 1027 mb | -1.218 ft | ||||
| 01-set | 06:00 | VFR | Calm | 10000 meters | 7° | 44° | 7° | 44° | 100% | 1026 mb | -1.309 ft | ||||
| 01-set | 05:00 | VFR | Calm | 10000 meters |
7° | 44° | 7° | 44° | 100% | 1026 mb | -1.309 ft | ||||
| 01-set | 04:00 | IFR | Calm | 2800 meters |
8° | 46° | 7° | 44° | 93% | 1026 mb | -1.189 ft | Mist | |||
| 01-set | 03:00 | MVFR | Calm | 6000 meters |
8° | 46° | 8° | 46° | 100% | 1027 mb | -1.218 ft | ||||
| 01-set | 02:00 | VFR | Calm | 10000 meters | 9° | 48° | 9° | 48° | 100% | 1027 mb | -1.098 ft | ||||
| 01-set | 01:00 | VFR | Calm | 10000 meters | 10° | 50° | 9° | 48° | 93% | 1028 mb | -1.008 ft | ||||
| 01-set | 00:00 | VFR | Calm | 10000 meters | 10° | 50° | 9° | 48° | 93% | 1028 mb | -1.008 ft | ||||
| 31-ago | 23:00 | VFR | Calm | 10000 meters | 11° | 51° | 10° | 50° | 94% | 1029 mb | -917 ft | ||||
| 31-ago | 22:00 | VFR | Calm | 10000 meters | 12° | 53° | 10° | 50° | 88% | 1029 mb | -797 ft | ||||
| 31-ago | 21:00 | VFR | Calm | 10000 meters | 13° | 55° | 11° | 51° | 88% | 1029 mb | -677 ft | ||||
| 31-ago | 20:00 | VFR | 110° | 1 kt | 10000 meters | 15° | 59° | 11° | 51° | 77% | 1029 mb | -437 ft | |||
| 31-ago | 19:00 | VFR | 70° | 4 kt | 10000 meters | 17° | 62° | 11° | 51° | 68% | 1029 mb | -197 ft | |||
| 31-ago | 18:00 | VFR | 90° | 7 kt | 10000 meters | 18° | 64° | 11° | 51° | 64% | 1028 mb | -48 ft | |||
| 31-ago | 17:00 | VFR | 100° | 8 kt | 10000 meters | 20° | 68° | 9° | 48° | 49% | 1028 mb | 192 ft | |||
| 31-ago | 16:00 | VFR | 110° | 10 kt | 10000 meters | 22° | 71° | 10° | 50° | 46% | 1028 mb | 432 ft |
Accedi
| Il tuo browser non è supportato. fai l'upgrade del tuo browser |
